Time;durP1;ratioP1;P1;durP2;ratioP2;P2;SDS_P1;SDS_P2;PMS_P1;PMS_P2;Temp;Humidity;BMP_temperature;BMP_pressure;BME280_temperature;BME280_humidity;BME280_pressure;Samples;Min_cycle;Max_cycle;Signal;HPM_P1;HPM_P2
2022/04/22 06:03:00;;;;;;;64.93;40.72;;;;;;;;;;4855128;29;20448;-86
2022/04/22 06:05:27;;;;;;;59.42;38.67;;;;;;;;;;4857358;29;20073;-85
2022/04/22 06:10:41;;;;;;;61.15;39.42;;;;;;;;;;4858972;29;20076;-87
2022/04/22 06:13:08;;;;;;;67.70;40.67;;;;;;;;;;4858693;29;20630;-85
2022/04/22 06:15:34;;;;;;;59.28;39.78;;;;;;;;;;4860076;29;20050;-86
2022/04/22 06:18:04;;;;;;;60.65;37.92;;;;;;;;;;4859111;29;20077;-85
2022/04/22 06:20:31;;;;;;;61.03;37.35;;;;;;;;;;4857567;29;20053;-86
2022/04/22 06:22:58;;;;;;;62.70;39.38;;;;;;;;;;4857376;29;20073;-87
2022/04/22 06:25:25;;;;;;;60.30;38.80;;;;;;;;;;4857178;29;20053;-87
2022/04/22 06:27:52;;;;;;;57.65;38.38;;;;;;;;;;4857929;29;20075;-86
2022/04/22 06:30:21;;;;;;;59.72;38.10;;;;;;;;;;4856266;29;20110;-86
2022/04/22 06:32:48;;;;;;;;;;;;;;;;;;4859386;29;20135;-87
2022/04/22 06:35:18;;;;;;;61.08;37.28;;;;;;;;;;4856316;29;19971;-85
2022/04/22 06:37:46;;;;;;;68.13;37.45;;;;;;;;;;4857416;29;20054;-86
2022/04/22 06:45:48;;;;;;;59.00;38.15;;;;;;;;;;4849956;29;20128;-89
2022/04/22 06:48:32;;;;;;;60.15;38.00;;;;;;;;;;4853720;29;20049;-89
2022/04/22 06:51:17;;;;;;;58.28;38.25;;;;;;;;;;4852870;29;20049;-87
2022/04/22 06:53:45;;;;;;;58.95;36.63;;;;;;;;;;4853604;29;20874;-87
2022/04/22 06:56:13;;;;;;;55.25;36.25;;;;;;;;;;4853536;29;20133;-90
2022/04/22 06:58:41;;;;;;;61.13;36.08;;;;;;;;;;4852127;29;20822;-88
2022/04/22 07:01:08;;;;;;;56.63;35.15;;;;;;;;;;4859866;29;20053;-87
2022/04/22 07:03:56;;;;;;;54.38;34.30;;;;;;;;;;4871874;29;20475;-87
2022/04/22 07:06:24;;;;;;;54.45;34.47;;;;;;;;;;4871595;29;20498;-88
2022/04/22 07:08:51;;;;;;;50.08;32.92;;;;;;;;;;4873349;29;20053;-88
2022/04/22 07:11:29;;;;;;;53.38;31.88;;;;;;;;;;4872622;29;20048;-88
2022/04/22 07:14:00;;;;;;;46.60;30.02;;;;;;;;;;4872827;29;20148;-89
2022/04/22 07:16:28;;;;;;;46.83;29.90;;;;;;;;;;4872020;29;20113;-89
2022/04/22 07:18:56;;;;;;;43.55;27.85;;;;;;;;;;4871619;29;20116;-86
2022/04/22 07:21:24;;;;;;;43.28;27.50;;;;;;;;;;4870151;29;20589;-87
2022/04/22 07:23:51;;;;;;;47.50;28.63;;;;;;;;;;4870625;29;20514;-89
2022/04/22 07:26:19;;;;;;;40.90;27.48;;;;;;;;;;4871348;29;20490;-88
2022/04/22 07:28:47;;;;;;;34.50;24.95;;;;;;;;;;4871324;29;20136;-89
2022/04/22 07:31:19;;;;;;;43.75;26.33;;;;;;;;;;4870502;29;20061;-87
2022/04/22 07:33:46;;;;;;;35.38;25.60;;;;;;;;;;4870508;29;20053;-85
2022/04/22 07:36:13;;;;;;;45.08;25.63;;;;;;;;;;4884082;29;20597;-87
2022/04/22 07:38:40;;;;;;;35.22;24.00;;;;;;;;;;4886508;29;20148;-88
2022/04/22 07:41:08;;;;;;;35.80;24.25;;;;;;;;;;4870832;29;20135;-86
2022/04/22 07:49:08;;;;;;;33.20;23.30;;;;;;;;;;4869663;29;20164;-87
2022/04/22 07:51:35;;;;;;;35.67;22.45;;;;;;;;;;4870573;29;20105;-86
2022/04/22 07:54:01;;;;;;;30.98;22.48;;;;;;;;;;4871334;29;20080;-88
2022/04/22 07:56:28;;;;;;;33.92;23.15;;;;;;;;;;4869552;29;20104;-86
2022/04/22 07:58:56;;;;;;;34.42;23.00;;;;;;;;;;4869339;29;20120;-86
2022/04/22 08:01:23;;;;;;;36.17;22.88;;;;;;;;;;4867739;29;20536;-84
2022/04/22 08:03:50;;;;;;;30.75;21.45;;;;;;;;;;4867862;29;20049;-86
2022/04/22 08:06:17;;;;;;;33.78;20.52;;;;;;;;;;4871152;29;20124;-85
2022/04/22 08:08:43;;;;;;;32.25;21.45;;;;;;;;;;4866951;29;20145;-87
2022/04/22 08:11:10;;;;;;;29.17;20.27;;;;;;;;;;4870127;29;20077;-85
2022/04/22 08:13:36;;;;;;;31.50;20.63;;;;;;;;;;4872082;29;20053;-86
2022/04/22 08:16:03;;;;;;;28.48;19.10;;;;;;;;;;4871651;29;20053;-84
2022/04/22 08:18:30;;;;;;;26.67;18.38;;;;;;;;;;4873653;29;20093;-87
2022/04/22 08:20:57;;;;;;;26.70;19.65;;;;;;;;;;4870366;29;20044;-85
2022/04/22 08:23:23;;;;;;;26.15;18.63;;;;;;;;;;4870269;29;20549;-87
2022/04/22 08:25:50;;;;;;;25.42;19.55;;;;;;;;;;4872833;29;20680;-88
2022/04/22 08:28:17;;;;;;;27.67;20.27;;;;;;;;;;4872795;29;20128;-86
2022/04/22 08:30:43;;;;;;;28.17;19.17;;;;;;;;;;4875797;29;20049;-88
2022/04/22 08:33:10;;;;;;;25.00;18.83;;;;;;;;;;4873692;29;20052;-85
2022/04/22 08:35:37;;;;;;;31.67;19.42;;;;;;;;;;4874326;29;20045;-86
2022/04/22 08:38:07;;;;;;;29.30;19.02;;;;;;;;;;4874362;29;20143;-82
2022/04/22 08:40:37;;;;;;;26.23;19.90;;;;;;;;;;4873975;29;20045;-86
2022/04/22 08:43:06;;;;;;;21.58;17.80;;;;;;;;;;4871894;29;20041;-86
2022/04/22 08:45:33;;;;;;;27.20;18.95;;;;;;;;;;4872632;29;20064;-86
2022/04/22 08:50:52;;;;;;;24.13;18.45;;;;;;;;;;4874023;29;20053;-88
2022/04/22 08:53:23;;;;;;;24.98;18.92;;;;;;;;;;4876168;29;20478;-88
2022/04/22 08:55:56;;;;;;;27.23;18.38;;;;;;;;;;4875342;29;20113;-88
2022/04/22 08:58:27;;;;;;;23.95;18.20;;;;;;;;;;4875358;29;20059;-88
2022/04/22 09:00:58;;;;;;;26.73;17.95;;;;;;;;;;4874816;29;20577;-88
2022/04/22 09:03:27;;;;;;;25.75;17.25;;;;;;;;;;4868486;29;20418;-87
2022/04/22 09:05:57;;;;;;;28.58;18.38;;;;;;;;;;4874786;29;20509;-89
2022/04/22 09:08:28;;;;;;;28.83;18.35;;;;;;;;;;4877279;29;20459;-88
2022/04/22 09:10:56;;;;;;;26.67;18.25;;;;;;;;;;4876441;29;20045;-90
2022/04/22 09:13:30;;;;;;;23.23;16.20;;;;;;;;;;4874694;29;20056;-90
2022/04/22 09:16:00;;;;;;;26.13;16.15;;;;;;;;;;4874281;29;20485;-88
2022/04/22 09:18:37;;;;;;;25.25;17.10;;;;;;;;;;4888975;29;20045;-89
2022/04/22 09:21:06;;;;;;;;;;;;;;;;;;4871289;29;20085;-89
2022/04/22 09:23:35;;;;;;;24.95;16.85;;;;;;;;;;4877906;29;19952;-89
2022/04/22 09:26:04;;;;;;;20.05;14.88;;;;;;;;;;4878087;29;20725;-87
2022/04/22 09:28:31;;;;;;;24.55;16.60;;;;;;;;;;4875624;29;20073;-87
2022/04/22 09:30:58;;;;;;;23.83;17.10;;;;;;;;;;4875688;29;20073;-89
2022/04/22 09:33:33;;;;;;;24.27;16.83;;;;;;;;;;4876247;29;20056;-89
2022/04/22 09:44:27;;;;;;;24.10;16.60;;;;;;;;;;4873999;29;25522;-90
2022/04/22 09:47:12;;;;;;;22.83;16.38;;;;;;;;;;4876948;29;20090;-91
2022/04/22 09:49:44;;;;;;;20.27;15.35;;;;;;;;;;4874967;29;20517;-90
2022/04/22 09:52:11;;;;;;;18.92;14.63;;;;;;;;;;4872454;29;20056;-90
2022/04/22 09:54:40;;;;;;;18.95;15.23;;;;;;;;;;4869628;29;20137;-90
2022/04/22 09:57:28;;;;;;;21.17;15.77;;;;;;;;;;4874294;29;20045;-88
2022/04/22 09:59:55;;;;;;;21.70;15.15;;;;;;;;;;4876527;29;20077;-89
2022/04/22 10:02:25;;;;;;;22.30;16.77;;;;;;;;;;4872195;29;20136;-88
2022/04/22 10:04:56;;;;;;;22.55;15.02;;;;;;;;;;4871892;29;20060;-86
2022/04/22 10:07:27;;;;;;;22.00;14.18;;;;;;;;;;4873024;29;20483;-87
2022/04/22 10:09:55;;;;;;;21.42;13.65;;;;;;;;;;4873380;29;20053;-87
2022/04/22 10:12:24;;;;;;;18.85;12.60;;;;;;;;;;4867427;29;20049;-88
2022/04/22 10:14:53;;;;;;;19.05;13.57;;;;;;;;;;4872933;29;20147;-89
2022/04/22 10:17:20;;;;;;;26.35;12.15;;;;;;;;;;4873279;29;20533;-87
2022/04/22 10:19:48;;;;;;;13.07;10.52;;;;;;;;;;4874781;29;20596;-88
2022/04/22 10:22:17;;;;;;;15.95;10.82;;;;;;;;;;4872580;29;20481;-89
2022/04/22 10:24:44;;;;;;;15.98;10.80;;;;;;;;;;4877292;29;20084;-94
2022/04/22 10:27:12;;;;;;;14.13;10.20;;;;;;;;;;4887221;29;20037;-91
2022/04/22 10:29:41;;;;;;;13.75;9.45;;;;;;;;;;4892231;29;20049;-93
2022/04/22 10:32:11;;;;;;;13.73;10.07;;;;;;;;;;4885563;29;20057;-93
2022/04/22 10:34:40;;;;;;;12.55;9.00;;;;;;;;;;4894566;29;20053;-93
2022/04/22 10:37:27;;;;;;;12.90;9.75;;;;;;;;;;4882420;29;20056;-93
2022/04/22 10:39:55;;;;;;;11.35;9.10;;;;;;;;;;4879804;29;20084;-93
2022/04/22 10:42:38;;;;;;;14.25;10.60;;;;;;;;;;4882878;29;20076;-92
2022/04/22 10:47:55;;;;;;;13.70;7.85;;;;;;;;;;4876093;29;20075;-94
2022/04/22 10:50:26;;;;;;;10.30;6.82;;;;;;;;;;4874696;29;20056;-90
2022/04/22 10:53:03;;;;;;;11.05;6.78;;;;;;;;;;4895678;29;20061;-89
2022/04/22 10:55:31;;;;;;;11.60;6.35;;;;;;;;;;4872607;29;20053;-89
2022/04/22 10:58:13;;;;;;;13.27;7.13;;;;;;;;;;4873542;29;20411;-90
2022/04/22 11:00:44;;;;;;;13.75;8.93;;;;;;;;;;4871905;29;20133;-89
2022/04/22 11:03:19;;;;;;;12.50;8.13;;;;;;;;;;4872524;29;20053;-88
2022/04/22 11:05:47;;;;;;;10.30;7.25;;;;;;;;;;4870616;29;20159;-88
2022/04/22 11:08:19;;;;;;;11.83;7.27;;;;;;;;;;4871650;29;20578;-89
2022/04/22 11:10:46;;;;;;;11.10;7.07;;;;;;;;;;4872867;29;20080;-92
2022/04/22 11:13:34;;;;;;;11.40;7.03;;;;;;;;;;4875014;29;20081;-96
2022/04/22 11:16:13;;;;;;;9.90;6.82;;;;;;;;;;4871242;29;20131;-93
2022/04/22 11:18:40;;;;;;;;;;;;;;;;;;4876114;29;20108;-94
2022/04/22 11:21:37;;;;;;;10.27;5.97;;;;;;;;;;4875159;29;20342;-94
2022/04/22 11:24:14;;;;;;;9.75;6.20;;;;;;;;;;4863704;29;20052;-94
2022/04/22 11:26:42;;;;;;;10.55;5.53;;;;;;;;;;4874063;29;20060;-92
2022/04/22 11:29:10;;;;;;;10.60;5.72;;;;;;;;;;4873691;29;20131;-92
2022/04/22 11:31:37;;;;;;;9.05;5.60;;;;;;;;;;4886487;29;20421;-92
2022/04/22 11:34:20;;;;;;;5.90;5.25;;;;;;;;;;4889518;29;20132;-90
2022/04/22 11:36:48;;;;;;;8.18;4.97;;;;;;;;;;4870019;29;20084;-94
2022/04/22 11:39:20;;;;;;;10.68;5.30;;;;;;;;;;4872932;29;20049;-87
2022/04/22 11:41:57;;;;;;;19.45;5.72;;;;;;;;;;4871761;29;20136;-90
2022/04/22 11:44:25;;;;;;;10.30;5.20;;;;;;;;;;4872695;29;20064;-91
2022/04/22 11:46:52;;;;;;;11.43;5.20;;;;;;;;;;4875149;29;20091;-92
2022/04/22 11:49:20;;;;;;;7.18;5.60;;;;;;;;;;4868249;29;20076;-93
2022/04/22 11:51:54;;;;;;;9.43;5.57;;;;;;;;;;4892864;29;20049;-94
2022/04/22 11:54:22;;;;;;;9.50;5.07;;;;;;;;;;4881975;29;20136;-93
2022/04/22 11:56:49;;;;;;;8.07;5.38;;;;;;;;;;4897557;29;20057;-91
2022/04/22 11:59:20;;;;;;;9.23;4.72;;;;;;;;;;4887597;29;20049;-93
2022/04/22 12:10:07;;;;;;;8.88;4.50;;;;;;;;;;4881735;29;20505;-95
2022/04/22 12:12:35;;;;;;;7.30;4.15;;;;;;;;;;4898796;29;20052;-95
2022/04/22 12:15:06;;;;;;;7.95;5.25;;;;;;;;;;4896854;29;20052;-94
2022/04/22 12:17:33;;;;;;;7.78;4.82;;;;;;;;;;4871356;29;20053;-93
2022/04/22 12:20:01;;;;;;;8.43;4.37;;;;;;;;;;4891211;29;20041;-93
2022/04/22 12:22:31;;;;;;;11.20;5.53;;;;;;;;;;4881712;29;20080;-88
2022/04/22 12:25:16;;;;;;;9.30;5.88;;;;;;;;;;4896641;29;20108;-92
2022/04/22 12:27:43;;;;;;;7.25;4.10;;;;;;;;;;4883070;29;20081;-90
2022/04/22 12:30:12;;;;;;;6.45;3.92;;;;;;;;;;4900265;29;20575;-89
2022/04/22 12:32:39;;;;;;;6.65;3.70;;;;;;;;;;4883130;29;20045;-93
2022/04/22 12:35:12;;;;;;;7.03;3.35;;;;;;;;;;4899106;29;20072;-91
2022/04/22 12:37:53;;;;;;;7.57;3.58;;;;;;;;;;4880271;29;20215;-88
2022/04/22 12:40:26;;;;;;;12.43;3.50;;;;;;;;;;4882303;29;20045;-88
2022/04/22 12:42:53;;;;;;;7.95;3.50;;;;;;;;;;4878874;29;20057;-89
2022/04/22 12:54:13;;;;;;;4.03;2.83;;;;;;;;;;4883880;29;20052;-87
2022/04/22 12:56:39;;;;;;;7.47;2.72;;;;;;;;;;4886795;29;20870;-87
2022/04/22 12:59:06;;;;;;;8.70;3.05;;;;;;;;;;4887502;29;20091;-88
2022/04/22 13:01:37;;;;;;;6.25;3.28;;;;;;;;;;4899884;29;20052;-88
2022/04/22 13:04:05;;;;;;;4.40;3.42;;;;;;;;;;4896359;29;20105;-87
2022/04/22 13:06:47;;;;;;;6.18;3.22;;;;;;;;;;4890201;29;20493;-87
2022/04/22 13:09:16;;;;;;;7.82;3.30;;;;;;;;;;4877762;29;20076;-88
2022/04/22 13:11:43;;;;;;;;;;;;;;;;;;4875724;29;20053;-88
2022/04/22 13:14:12;;;;;;;7.75;2.78;;;;;;;;;;4891755;29;19923;-88
2022/04/22 13:16:38;;;;;;;;;;;;;;;;;;4892902;29;20208;-90
2022/04/22 13:19:11;;;;;;;7.88;3.75;;;;;;;;;;4897747;29;19957;-88
2022/04/22 13:21:40;;;;;;;;;;;;;;;;;;4877649;29;20053;-90
2022/04/22 13:24:07;;;;;;;5.72;2.92;;;;;;;;;;4879541;29;19928;-90
2022/04/22 13:26:35;;;;;;;7.50;3.72;;;;;;;;;;4881650;29;20458;-89
2022/04/22 13:29:06;;;;;;;4.13;3.15;;;;;;;;;;4880040;29;20093;-90
2022/04/22 13:31:35;;;;;;;4.25;3.15;;;;;;;;;;4889481;29;20068;-89
2022/04/22 13:34:03;;;;;;;6.80;2.92;;;;;;;;;;4888748;29;20052;-89
2022/04/22 13:36:37;;;;;;;5.90;3.47;;;;;;;;;;4891029;29;20052;-87
2022/04/22 13:39:04;;;;;;;8.60;3.78;;;;;;;;;;4878143;29;20143;-88
2022/04/22 13:41:31;;;;;;;3.90;3.00;;;;;;;;;;4884606;29;20069;-88
2022/04/22 13:43:58;;;;;;;9.25;2.70;;;;;;;;;;4879489;29;20076;-86
2022/04/22 13:54:28;;;;;;;5.88;2.85;;;;;;;;;;4879015;29;20557;-88
2022/04/22 13:56:55;;;;;;;5.03;2.63;;;;;;;;;;4880276;29;20076;-89
2022/04/22 13:59:22;;;;;;;5.88;2.60;;;;;;;;;;4876550;29;20076;-89
2022/04/22 14:01:48;;;;;;;4.78;2.60;;;;;;;;;;4902599;29;20059;-90
2022/04/22 14:04:15;;;;;;;4.40;2.58;;;;;;;;;;4898055;29;20104;-88
2022/04/22 14:06:42;;;;;;;6.32;2.70;;;;;;;;;;4879967;29;20060;-88
2022/04/22 14:09:09;;;;;;;5.55;2.60;;;;;;;;;;4879684;29;20573;-89
2022/04/22 14:11:36;;;;;;;5.20;2.75;;;;;;;;;;4889212;29;20048;-89
2022/04/22 14:14:03;;;;;;;14.48;2.78;;;;;;;;;;4877224;29;20530;-90
2022/04/22 14:16:30;;;;;;;7.05;3.08;;;;;;;;;;4880150;29;20076;-83
2022/04/22 14:18:57;;;;;;;5.38;2.67;;;;;;;;;;4879507;29;20140;-89
2022/04/22 14:21:24;;;;;;;4.63;2.58;;;;;;;;;;4884826;29;20060;-87
2022/04/22 14:23:54;;;;;;;4.40;2.30;;;;;;;;;;4888541;29;20900;-87
2022/04/22 14:26:21;;;;;;;4.53;2.30;;;;;;;;;;4876011;29;20056;-88
2022/04/22 14:28:48;;;;;;;3.42;2.80;;;;;;;;;;4901481;29;20076;-90
2022/04/22 14:31:15;;;;;;;3.95;2.63;;;;;;;;;;4879719;29;20478;-89
2022/04/22 14:33:44;;;;;;;5.63;2.45;;;;;;;;;;4887476;29;20079;-89
2022/04/22 14:36:12;;;;;;;4.57;2.50;;;;;;;;;;4882025;29;20079;-89
2022/04/22 14:38:38;;;;;;;6.97;2.88;;;;;;;;;;4880545;29;20060;-89
2022/04/22 14:41:05;;;;;;;5.93;2.45;;;;;;;;;;4876073;29;20048;-88
2022/04/22 14:43:32;;;;;;;5.22;2.47;;;;;;;;;;4885450;29;20044;-87
2022/04/22 14:45:59;;;;;;;4.05;2.67;;;;;;;;;;4881215;29;20093;-87
2022/04/22 14:48:26;;;;;;;4.07;2.40;;;;;;;;;;4896083;29;20056;-87
2022/04/22 14:50:53;;;;;;;4.38;2.50;;;;;;;;;;4884879;29;20108;-87
2022/04/22 14:53:20;;;;;;;3.72;2.45;;;;;;;;;;4885065;29;20052;-86
2022/04/22 14:55:46;;;;;;;3.83;2.17;;;;;;;;;;4886820;29;20104;-85
2022/04/22 14:58:13;;;;;;;5.25;2.75;;;;;;;;;;4884018;29;20160;-89
2022/04/22 15:00:40;;;;;;;5.22;2.20;;;;;;;;;;4876010;29;20521;-89
2022/04/22 15:03:06;;;;;;;3.80;2.33;;;;;;;;;;4882516;29;20116;-90
2022/04/22 15:05:33;;;;;;;6.88;2.40;;;;;;;;;;4878064;29;20056;-88
2022/04/22 15:08:00;;;;;;;3.55;2.38;;;;;;;;;;4882013;29;20080;-89
2022/04/22 15:10:27;;;;;;;5.32;2.33;;;;;;;;;;4880447;29;20044;-87
2022/04/22 15:12:54;;;;;;;7.60;2.20;;;;;;;;;;4885748;29;20135;-87
2022/04/22 15:15:22;;;;;;;5.50;2.30;;;;;;;;;;4875775;29;20048;-88
2022/04/22 15:26:05;;;;;;;5.07;2.22;;;;;;;;;;4876616;29;20052;-88
2022/04/22 15:28:32;;;;;;;3.50;2.30;;;;;;;;;;4877375;29;20053;-88
2022/04/22 15:31:23;;;;;;;2.88;2.20;;;;;;;;;;4876183;29;20044;-89
2022/04/22 15:33:49;;;;;;;4.40;2.58;;;;;;;;;;4875475;29;20051;-88
2022/04/22 15:36:16;;;;;;;5.43;2.20;;;;;;;;;;4879694;29;20506;-87
2022/04/22 15:38:44;;;;;;;4.50;2.20;;;;;;;;;;4868593;29;20052;-90
2022/04/22 15:41:13;;;;;;;2.38;2.15;;;;;;;;;;4883571;29;20068;-90
2022/04/22 15:43:46;;;;;;;3.72;2.08;;;;;;;;;;4870415;29;20044;-88
2022/04/22 15:46:13;;;;;;;5.65;2.30;;;;;;;;;;4888703;29;20121;-88
2022/04/22 15:48:39;;;;;;;4.18;2.08;;;;;;;;;;4867011;29;20053;-89
2022/04/22 15:51:06;;;;;;;4.35;2.13;;;;;;;;;;4882772;29;20079;-90
2022/04/22 15:53:34;;;;;;;3.78;2.10;;;;;;;;;;4880669;29;20561;-90
2022/04/22 15:56:01;;;;;;;2.85;2.00;;;;;;;;;;4883488;29;20049;-89
2022/04/22 15:58:28;;;;;;;4.47;2.05;;;;;;;;;;4883169;29;20045;-88
2022/04/22 16:00:55;;;;;;;5.30;2.40;;;;;;;;;;4888043;29;20060;-89
2022/04/22 16:03:23;;;;;;;6.00;2.78;;;;;;;;;;4871238;29;20045;-88
2022/04/22 16:05:52;;;;;;;6.35;2.45;;;;;;;;;;4882838;29;20140;-90
2022/04/22 16:08:22;;;;;;;10.35;2.60;;;;;;;;;;4897757;29;20068;-89
2022/04/22 16:10:49;;;;;;;6.95;2.67;;;;;;;;;;4887818;29;20077;-87
2022/04/22 16:16:02;;;;;;;3.67;2.40;;;;;;;;;;4879019;29;20049;-88
2022/04/22 16:18:30;;;;;;;5.15;2.35;;;;;;;;;;4885080;29;20549;-90
2022/04/22 16:20:57;;;;;;;6.95;3.17;;;;;;;;;;4886263;29;20048;-88
2022/04/22 16:23:23;;;;;;;6.07;2.90;;;;;;;;;;4882415;29;20048;-90
2022/04/22 16:25:53;;;;;;;4.68;2.90;;;;;;;;;;4882177;29;20079;-89
2022/04/22 16:28:22;;;;;;;6.88;3.50;;;;;;;;;;4881484;29;20100;-89
2022/04/22 16:30:51;;;;;;;7.95;3.25;;;;;;;;;;4866658;29;20079;-89
2022/04/22 16:33:20;;;;;;;7.20;3.60;;;;;;;;;;4877060;29;20052;-89
2022/04/22 16:35:48;;;;;;;7.05;3.45;;;;;;;;;;4882268;29;20049;-88
2022/04/22 16:38:14;;;;;;;8.65;3.60;;;;;;;;;;4879265;29;20076;-88
2022/04/22 16:40:41;;;;;;;9.90;3.75;;;;;;;;;;4877501;29;20044;-86
2022/04/22 16:43:08;;;;;;;9.45;4.15;;;;;;;;;;4879708;29;20069;-88
2022/04/22 16:45:34;;;;;;;6.68;4.03;;;;;;;;;;4870307;29;20048;-89
2022/04/22 16:48:02;;;;;;;5.80;3.58;;;;;;;;;;4867819;29;20049;-89
2022/04/22 16:50:32;;;;;;;4.97;4.20;;;;;;;;;;4877597;29;20462;-89
2022/04/22 16:53:04;;;;;;;7.55;4.00;;;;;;;;;;4896016;29;20059;-86
2022/04/22 16:55:31;;;;;;;10.38;4.10;;;;;;;;;;4883248;29;20419;-87
2022/04/22 16:57:57;;;;;;;6.32;3.90;;;;;;;;;;4884002;29;20049;-88
2022/04/22 17:00:25;;;;;;;8.23;4.20;;;;;;;;;;4886152;29;20070;-88
2022/04/22 17:02:51;;;;;;;9.90;4.57;;;;;;;;;;4893412;29;20099;-88
2022/04/22 17:05:19;;;;;;;6.65;4.18;;;;;;;;;;4897488;29;20825;-87
2022/04/22 17:07:46;;;;;;;10.20;5.57;;;;;;;;;;4879435;29;20442;-86
2022/04/22 17:10:13;;;;;;;6.95;4.93;;;;;;;;;;4885620;29;20139;-87
2022/04/22 17:12:40;;;;;;;7.57;4.88;;;;;;;;;;4888406;29;20081;-87
2022/04/22 17:23:22;;;;;;;9.45;5.22;;;;;;;;;;4877675;29;20075;-87
2022/04/22 17:25:49;;;;;;;7.38;5.00;;;;;;;;;;4884592;29;20148;-87
2022/04/22 17:28:19;;;;;;;5.88;5.07;;;;;;;;;;4881474;29;20052;-87
2022/04/22 17:30:48;;;;;;;9.00;5.53;;;;;;;;;;4886870;29;20076;-88
2022/04/22 17:33:15;;;;;;;9.55;5.20;;;;;;;;;;4856925;29;20053;-89
2022/04/22 17:35:42;;;;;;;10.55;5.20;;;;;;;;;;4877746;29;20084;-87
2022/04/22 17:38:09;;;;;;;9.15;5.32;;;;;;;;;;4862244;29;20156;-89
2022/04/22 17:40:35;;;;;;;7.00;5.10;;;;;;;;;;4880667;29;20463;-88
2022/04/22 17:43:06;;;;;;;9.13;5.40;;;;;;;;;;4869959;29;20517;-88
2022/04/22 17:45:33;;;;;;;11.50;5.32;;;;;;;;;;4889284;29;20048;-89
2022/04/22 17:48:00;;;;;;;9.30;5.00;;;;;;;;;;4891990;29;20508;-89
2022/04/22 17:50:26;;;;;;;7.13;4.72;;;;;;;;;;4877687;29;20072;-89
2022/04/22 17:52:54;;;;;;;5.55;4.90;;;;;;;;;;4883035;29;20075;-90
2022/04/22 17:55:20;;;;;;;7.32;5.28;;;;;;;;;;4885812;29;20087;-91
2022/04/22 17:57:47;;;;;;;9.15;5.82;;;;;;;;;;4880609;29;20053;-90
2022/04/22 18:00:16;;;;;;;8.75;5.47;;;;;;;;;;4888280;29;20044;-90
2022/04/22 18:02:43;;;;;;;7.38;5.25;;;;;;;;;;4877721;29;20060;-91
2022/04/22 18:05:11;;;;;;;9.65;5.10;;;;;;;;;;4880690;29;20056;-90
2022/04/22 18:07:44;;;;;;;12.75;6.60;;;;;;;;;;4891820;29;20113;-92
2022/04/22 18:10:13;;;;;;;14.20;6.47;;;;;;;;;;4887420;29;20045;-89
2022/04/22 18:12:39;;;;;;;14.38;6.43;;;;;;;;;;4876553;29;20077;-89
2022/04/22 18:17:53;;;;;;;11.90;6.90;;;;;;;;;;4887590;29;20044;-89
2022/04/22 18:20:20;;;;;;;19.50;7.78;;;;;;;;;;4878227;29;20591;-91
2022/04/22 18:22:48;;;;;;;16.13;7.33;;;;;;;;;;4872674;29;20166;-89
2022/04/22 18:25:15;;;;;;;12.43;6.97;;;;;;;;;;4871464;29;20508;-92
2022/04/22 18:27:42;;;;;;;12.73;6.95;;;;;;;;;;4888354;29;20049;-91
2022/04/22 18:30:09;;;;;;;15.52;6.82;;;;;;;;;;4869715;29;20541;-91
2022/04/22 18:32:36;;;;;;;9.32;6.60;;;;;;;;;;4890263;29;20458;-91
2022/04/22 18:35:04;;;;;;;13.73;7.28;;;;;;;;;;4906221;29;20111;-89
2022/04/22 18:37:30;;;;;;;9.02;7.13;;;;;;;;;;4880103;29;20101;-91
2022/04/22 18:39:57;;;;;;;12.57;8.13;;;;;;;;;;4878867;29;20063;-90
2022/04/22 18:42:25;;;;;;;11.77;7.07;;;;;;;;;;4877730;29;20100;-90
2022/04/22 18:44:52;;;;;;;11.82;7.95;;;;;;;;;;4876821;29;20048;-90
2022/04/22 18:47:18;;;;;;;13.30;8.65;;;;;;;;;;4877220;29;20068;-90
2022/04/22 18:49:46;;;;;;;13.00;8.23;;;;;;;;;;4874274;29;20081;-90
2022/04/22 18:52:13;;;;;;;12.60;9.10;;;;;;;;;;4878456;29;20129;-91
2022/04/22 18:54:41;;;;;;;12.52;9.13;;;;;;;;;;4877739;29;20143;-88
2022/04/22 18:57:08;;;;;;;11.13;8.87;;;;;;;;;;4881006;29;20120;-91
2022/04/22 18:59:35;;;;;;;13.20;8.82;;;;;;;;;;4882804;29;20044;-91
2022/04/22 19:02:02;;;;;;;15.75;9.50;;;;;;;;;;4883582;29;20136;-91
2022/04/22 19:04:32;;;;;;;16.05;10.00;;;;;;;;;;4880870;29;20425;-90
2022/04/22 19:06:59;;;;;;;13.93;9.75;;;;;;;;;;4882402;29;20064;-90
2022/04/22 19:09:26;;;;;;;20.50;10.68;;;;;;;;;;4891419;29;20075;-90
2022/04/22 19:11:53;;;;;;;16.70;10.13;;;;;;;;;;4904617;29;20049;-89
2022/04/22 19:14:20;;;;;;;18.80;10.57;;;;;;;;;;4886527;29;20131;-91
2022/04/22 19:16:47;;;;;;;15.60;9.18;;;;;;;;;;4890173;29;20487;-89
2022/04/22 19:19:14;;;;;;;15.50;10.07;;;;;;;;;;4878905;29;20049;-90
2022/04/22 19:21:41;;;;;;;20.08;10.95;;;;;;;;;;4885041;29;20097;-91
2022/04/22 19:24:07;;;;;;;14.35;10.55;;;;;;;;;;4882369;29;20477;-87
2022/04/22 19:26:34;;;;;;;14.93;10.50;;;;;;;;;;4874170;29;20044;-89
2022/04/22 19:29:01;;;;;;;17.85;10.95;;;;;;;;;;4882218;29;20139;-90
2022/04/22 19:31:28;;;;;;;16.88;11.27;;;;;;;;;;4890344;29;20063;-89
2022/04/22 19:33:54;;;;;;;18.70;10.90;;;;;;;;;;4886871;29;20055;-90
2022/04/22 19:41:57;;;;;;;20.83;11.52;;;;;;;;;;4864019;29;20049;-89
2022/04/22 19:44:23;;;;;;;23.27;12.38;;;;;;;;;;4861581;29;20062;-90
2022/04/22 19:46:50;;;;;;;23.17;12.77;;;;;;;;;;4866529;29;20125;-89
2022/04/22 19:49:17;;;;;;;18.08;12.27;;;;;;;;;;4859955;29;20065;-90
2022/04/22 19:51:44;;;;;;;17.80;12.60;;;;;;;;;;4863577;29;20518;-91
2022/04/22 19:54:12;;;;;;;19.92;13.27;;;;;;;;;;4835508;29;20635;-91
2022/04/22 19:56:39;;;;;;;19.15;13.07;;;;;;;;;;4843410;29;20057;-92
2022/04/22 19:59:06;;;;;;;19.00;13.05;;;;;;;;;;4858924;29;20497;-90
2022/04/22 20:01:34;;;;;;;18.75;13.13;;;;;;;;;;4855665;29;20174;-89
2022/04/22 20:04:02;;;;;;;19.58;13.95;;;;;;;;;;4859133;29;20094;-92
2022/04/22 20:06:29;;;;;;;20.55;13.63;;;;;;;;;;4855014;29;20048;-91
2022/04/22 20:08:57;;;;;;;25.95;14.77;;;;;;;;;;4859301;29;20066;-90
2022/04/22 20:11:24;;;;;;;24.10;14.13;;;;;;;;;;4854475;29;20883;-92
2022/04/22 20:13:50;;;;;;;22.55;14.38;;;;;;;;;;4859902;29;20097;-92
2022/04/22 20:16:20;;;;;;;23.05;15.00;;;;;;;;;;4864871;29;20120;-92
2022/04/22 20:18:47;;;;;;;22.15;14.52;;;;;;;;;;4880281;29;20059;-93
2022/04/22 20:21:18;;;;;;;21.52;15.25;;;;;;;;;;4877698;29;20419;-93
2022/04/22 20:23:45;;;;;;;23.63;15.35;;;;;;;;;;4903522;29;20072;-92
2022/04/22 20:26:13;;;;;;;29.20;16.08;;;;;;;;;;4881462;29;20076;-92
2022/04/22 20:28:40;;;;;;;25.67;15.40;;;;;;;;;;4887320;29;20174;-92
2022/04/22 20:31:07;;;;;;;26.30;15.27;;;;;;;;;;4889709;29;20061;-90
2022/04/22 20:33:34;;;;;;;27.00;17.05;;;;;;;;;;4880259;29;20059;-90
2022/04/22 20:41:32;;;;;;;30.30;18.73;;;;;;;;;;4881566;29;20048;-89
2022/04/22 20:44:04;;;;;;;26.73;18.38;;;;;;;;;;4880902;29;20064;-92
2022/04/22 20:46:31;;;;;;;30.30;18.73;;;;;;;;;;4886527;29;20053;-90
2022/04/22 20:48:58;;;;;;;27.63;18.63;;;;;;;;;;4887911;29;20052;-86
2022/04/22 20:51:25;;;;;;;27.45;19.67;;;;;;;;;;4888362;29;20057;-88
2022/04/22 20:53:53;;;;;;;29.02;18.45;;;;;;;;;;4887195;29;20049;-89
2022/04/22 20:56:21;;;;;;;30.25;19.55;;;;;;;;;;4885150;29;20532;-89
2022/04/22 20:58:48;;;;;;;31.88;19.80;;;;;;;;;;4894567;29;20061;-90
2022/04/22 21:01:15;;;;;;;34.53;21.02;;;;;;;;;;4886505;29;20421;-90
2022/04/22 21:03:43;;;;;;;36.20;20.92;;;;;;;;;;4881751;29;20053;-87
2022/04/22 21:06:11;;;;;;;30.20;20.95;;;;;;;;;;4874127;29;20160;-90
2022/04/22 21:08:39;;;;;;;34.85;21.90;;;;;;;;;;4892027;29;20044;-88
2022/04/22 21:11:07;;;;;;;41.63;23.35;;;;;;;;;;4892680;29;20118;-89
2022/04/22 21:13:36;;;;;;;34.53;23.70;;;;;;;;;;4886148;29;20053;-88
2022/04/22 21:16:06;;;;;;;42.15;24.40;;;;;;;;;;4892799;29;20048;-88
2022/04/22 21:18:34;;;;;;;37.03;24.88;;;;;;;;;;4896181;29;20052;-87
2022/04/22 21:21:06;;;;;;;38.33;24.27;;;;;;;;;;4893396;29;20144;-88
2022/04/22 21:23:33;;;;;;;43.20;25.92;;;;;;;;;;4891699;29;20112;-87
2022/04/22 21:25:59;;;;;;;35.13;24.95;;;;;;;;;;4883603;29;20044;-88
2022/04/22 21:28:26;;;;;;;50.63;28.45;;;;;;;;;;4881323;29;20049;-90
2022/04/22 21:30:55;;;;;;;46.30;27.83;;;;;;;;;;4884349;29;20415;-88
2022/04/22 21:33:22;;;;;;;46.33;28.77;;;;;;;;;;4879151;29;20056;-88
2022/04/22 21:35:48;;;;;;;46.67;29.23;;;;;;;;;;4882168;29;20067;-87
2022/04/22 21:38:17;;;;;;;50.58;28.98;;;;;;;;;;4894035;29;20045;-86
2022/04/22 21:40:45;;;;;;;;;;;;;;;;;;4883636;29;20057;-89
2022/04/22 21:43:13;;;;;;;58.77;30.73;;;;;;;;;;4882461;29;19971;-89
2022/04/22 21:45:41;;;;;;;50.00;29.95;;;;;;;;;;4883417;29;20300;-89
2022/04/22 21:48:09;;;;;;;54.65;30.80;;;;;;;;;;4894036;29;20143;-89
2022/04/22 21:50:37;;;;;;;53.10;30.73;;;;;;;;;;4890207;29;20055;-88
2022/04/22 21:53:06;;;;;;;55.55;31.52;;;;;;;;;;4878266;29;20068;-87
2022/04/22 21:55:33;;;;;;;50.83;31.42;;;;;;;;;;4896390;29;20048;-87
2022/04/22 21:58:00;;;;;;;50.30;32.08;;;;;;;;;;4875170;29;20053;-89
2022/04/22 22:00:53;;;;;;;56.95;33.17;;;;;;;;;;4881372;29;20057;-90
2022/04/22 22:03:22;;;;;;;55.55;33.97;;;;;;;;;;4871071;29;20131;-91
2022/04/22 22:05:51;;;;;;;54.28;33.85;;;;;;;;;;4879055;29;20049;-90
2022/04/22 22:08:19;;;;;;;57.72;33.65;;;;;;;;;;4879426;29;20072;-89